Ashland, Missouri
Current Conditions -  °F | °C
As of 1:54 PM on Monday 26 Jan 2015 (Local Time) from KCOU Reporting Station
Clear Clear  
Wind Chill: 11°   Ceiling: Unl
Heat Index: 11°   Visibility: 10mi
Dew Point:   Wind: 14mph
Humidity: 54%   Direction: 250°WSW
Pressure: 29.85"   Gusts: NA
Location:  38.77°N, 92.26°W
Report Text: KCOU 261954Z 25012KT 10SM CLR 11/02 A2985 RMK AO2 SLP110 T01060017
Loading
Personal Weather Stations






























Interactive Weather Map New forecast layout! Learn more

10-Day Weather Forecast

Advertisements
Track Severe Weather on mobile